createdAt,value
2019-01-10T00:00:50.023Z,100.0
2019-01-10T00:01:50.726Z,100.0
2019-01-10T00:02:51.456Z,100.0
2019-01-10T00:03:52.152Z,100.0
2019-01-10T00:04:52.880Z,100.0
2019-01-10T00:05:53.578Z,100.0
2019-01-10T00:06:54.316Z,100.0
2019-01-10T00:07:55.019Z,100.0
2019-01-10T00:08:55.719Z,100.0
2019-01-10T00:09:56.681Z,100.0
2019-01-10T00:10:57.387Z,100.0
2019-01-10T00:11:58.103Z,100.0
2019-01-10T00:12:59.049Z,100.0
2019-01-10T00:13:59.755Z,100.0
2019-01-10T00:15:00.557Z,100.0
2019-01-10T00:16:01.257Z,100.0
2019-01-10T00:17:01.982Z,100.0
2019-01-10T00:18:02.678Z,100.0
2019-01-10T00:19:03.381Z,100.0
2019-01-10T00:20:04.096Z,100.0
2019-01-10T00:21:05.055Z,100.0
2019-01-10T00:22:05.754Z,100.0
2019-01-10T00:23:06.464Z,100.0
2019-01-10T00:24:07.168Z,100.0
2019-01-10T00:25:07.966Z,100.0
2019-01-10T00:26:09.246Z,100.0
2019-01-10T00:27:10.264Z,100.0
2019-01-10T00:28:10.978Z,100.0
2019-01-10T00:29:11.684Z,100.0
2019-01-10T00:30:12.491Z,100.0
2019-01-10T00:31:13.195Z,100.0
2019-01-10T00:32:13.898Z,100.0
2019-01-10T00:33:14.868Z,100.0
2019-01-10T00:34:15.558Z,100.0
2019-01-10T00:35:16.265Z,100.0
2019-01-10T00:36:16.976Z,100.0
2019-01-10T00:37:17.723Z,100.0
2019-01-10T00:38:18.388Z,100.0
2019-01-10T00:39:19.089Z,100.0
2019-01-10T00:40:19.793Z,100.0
2019-01-10T00:41:20.500Z,100.0
2019-01-10T00:42:21.208Z,100.0
2019-01-10T00:43:21.919Z,100.0
2019-01-10T00:44:22.634Z,100.0
2019-01-10T00:45:23.349Z,100.0
2019-01-10T00:46:24.060Z,100.0
2019-01-10T00:47:24.765Z,100.0
2019-01-10T00:48:25.464Z,100.0
2019-01-10T00:49:26.176Z,100.0
2019-01-10T00:50:26.887Z,100.0
2019-01-10T00:51:27.583Z,100.0
2019-01-10T00:52:28.307Z,100.0
2019-01-10T00:53:29.098Z,100.0
2019-01-10T00:54:29.811Z,100.0
2019-01-10T00:55:30.519Z,100.0
2019-01-10T00:56:31.219Z,100.0
2019-01-10T00:57:31.929Z,100.0
2019-01-10T00:58:32.735Z,100.0
2019-01-10T00:59:33.736Z,100.0
2019-01-10T01:00:34.424Z,100.0
2019-01-10T01:01:35.131Z,100.0
2019-01-10T01:02:36.424Z,100.0
2019-01-10T01:03:37.131Z,100.0
2019-01-10T01:04:37.838Z,100.0
2019-01-10T01:05:38.796Z,100.0
2019-01-10T01:06:39.503Z,100.0
2019-01-10T01:07:40.197Z,100.0
2019-01-10T01:08:40.918Z,100.0
2019-01-10T01:09:41.880Z,100.0
2019-01-10T01:10:42.590Z,100.0
2019-01-10T01:11:43.300Z,100.0
2019-01-10T01:12:44.001Z,100.0
2019-01-10T01:13:44.723Z,100.0
2019-01-10T01:14:45.422Z,100.0
2019-01-10T01:15:46.129Z,100.0
2019-01-10T01:16:46.842Z,100.0
2019-01-10T01:17:47.554Z,100.0
2019-01-10T01:18:48.258Z,100.0
2019-01-10T01:19:48.962Z,100.0
2019-01-10T01:20:49.764Z,100.0
2019-01-10T01:21:50.473Z,100.0
2019-01-10T01:22:51.171Z,99.9
2019-01-10T01:23:51.870Z,97.7
2019-01-10T01:24:52.571Z,97.1
2019-01-10T01:25:53.324Z,93.7
2019-01-10T01:26:54.272Z,93.0
2019-01-10T01:27:54.976Z,91.2
2019-01-10T01:28:55.926Z,91.9
2019-01-10T01:29:56.633Z,92.0
2019-01-10T01:30:57.490Z,91.2
2019-01-10T01:31:58.290Z,90.9
2019-01-10T01:32:58.996Z,90.3
2019-01-10T01:33:59.710Z,90.6
2019-01-10T01:35:00.426Z,90.7
2019-01-10T01:36:01.371Z,91.2
2019-01-10T01:37:02.088Z,91.6
2019-01-10T01:38:02.776Z,91.8
2019-01-10T01:39:03.728Z,91.2
2019-01-10T01:40:04.511Z,91.5
2019-01-10T01:41:05.327Z,91.5
2019-01-10T01:42:06.040Z,88.6
2019-01-10T01:43:07.565Z,89.3
2019-01-10T01:44:07.450Z,91.5
2019-01-10T01:45:08.159Z,92.6
2019-01-10T01:46:08.858Z,94.3
2019-01-10T01:47:09.569Z,94.2
2019-01-10T01:48:10.276Z,95.0
2019-01-10T01:49:10.978Z,95.6
2019-01-10T01:50:11.688Z,95.9
2019-01-10T01:51:12.493Z,96.2
2019-01-10T01:52:13.195Z,95.6
2019-01-10T01:53:13.912Z,94.9
2019-01-10T01:54:14.616Z,94.9
2019-01-10T01:55:15.317Z,93.8
2019-01-10T01:56:16.076Z,92.6
2019-01-10T01:57:16.791Z,93.1
2019-01-10T01:58:17.501Z,93.1
2019-01-10T01:59:18.216Z,92.6
2019-01-10T02:00:18.931Z,91.7
2019-01-10T02:01:19.773Z,91.4
2019-01-10T02:02:20.498Z,91.4
2019-01-10T02:03:21.187Z,91.1
2019-01-10T02:04:21.893Z,91.1
2019-01-10T02:05:22.601Z,90.9
2019-01-10T02:06:23.463Z,91.1
2019-01-10T02:07:24.500Z,91.1
2019-01-10T02:08:25.198Z,88.9
2019-01-10T02:09:25.915Z,87.8
2019-01-10T02:10:26.616Z,87.1
2019-01-10T02:11:27.325Z,87.7
2019-01-10T02:12:28.024Z,87.6
2019-01-10T02:13:28.729Z,88.3
2019-01-10T02:14:29.450Z,88.0
2019-01-10T02:15:30.132Z,87.9
2019-01-10T02:16:30.845Z,87.2
2019-01-10T02:17:31.551Z,88.5
2019-01-10T02:18:32.277Z,87.7
2019-01-10T02:19:33.359Z,87.7
2019-01-10T02:20:34.101Z,88.3
2019-01-10T02:21:35.110Z,88.0
2019-01-10T02:22:36.060Z,88.5
2019-01-10T02:23:37.646Z,87.2
2019-01-10T02:24:38.411Z,85.9
2019-01-10T02:25:39.864Z,85.8
2019-01-10T02:26:41.340Z,86.1
2019-01-10T02:27:42.136Z,86.2
2019-01-10T02:28:42.878Z,86.4
2019-01-10T02:29:43.601Z,87.3
2019-01-10T02:30:44.317Z,87.7
2019-01-10T02:31:45.017Z,87.7
2019-01-10T02:32:45.733Z,87.0
2019-01-10T02:33:46.438Z,87.3
2019-01-10T02:34:47.140Z,87.0
2019-01-10T02:35:48.195Z,86.3
2019-01-10T02:36:48.923Z,85.9
2019-01-10T02:37:49.632Z,85.7
2019-01-10T02:38:50.341Z,85.7
2019-01-10T02:39:51.039Z,84.9
2019-01-10T02:40:51.757Z,85.2
2019-01-10T02:41:52.814Z,86.0
2019-01-10T02:42:53.419Z,86.0
2019-01-10T02:43:54.118Z,85.5
2019-01-10T02:44:54.838Z,86.0
2019-01-10T02:45:55.538Z,85.3
2019-01-10T02:46:56.343Z,84.5
2019-01-10T02:47:57.056Z,82.9
2019-01-10T02:48:57.756Z,83.1
2019-01-10T02:49:58.466Z,84.1
2019-01-10T02:50:59.172Z,83.1
2019-01-10T02:51:59.874Z,82.9
2019-01-10T02:53:00.580Z,82.8
2019-01-10T02:54:01.289Z,83.0
2019-01-10T02:55:02.008Z,82.1
2019-01-10T02:56:02.710Z,82.0
2019-01-10T02:57:03.420Z,82.0
2019-01-10T02:58:04.128Z,81.6
2019-01-10T02:59:04.831Z,81.9
2019-01-10T03:00:05.538Z,81.3
2019-01-10T03:01:06.484Z,81.3
2019-01-10T03:02:07.191Z,81.5
2019-01-10T03:03:07.905Z,81.9
2019-01-10T03:04:08.608Z,80.9
2019-01-10T03:05:09.330Z,79.6
2019-01-10T03:06:10.033Z,80.0
2019-01-10T03:07:10.742Z,79.9
2019-01-10T03:08:11.708Z,79.3
2019-01-10T03:09:12.426Z,79.6
2019-01-10T03:10:13.125Z,80.5
2019-01-10T03:11:13.834Z,80.6
2019-01-10T03:12:14.788Z,80.6
2019-01-10T03:13:15.506Z,80.4
2019-01-10T03:14:16.269Z,79.9
2019-01-10T03:15:16.977Z,79.2
2019-01-10T03:16:17.682Z,78.1
2019-01-10T03:17:18.641Z,78.6
2019-01-10T03:18:19.356Z,78.0
2019-01-10T03:19:20.106Z,77.0
2019-01-10T03:20:20.808Z,74.7
2019-01-10T03:21:21.522Z,74.2
2019-01-10T03:22:22.213Z,74.6
2019-01-10T03:23:22.918Z,75.1
2019-01-10T03:24:23.785Z,75.5
2019-01-10T03:25:24.481Z,75.2
2019-01-10T03:26:25.193Z,75.7
2019-01-10T03:27:25.892Z,75.5
2019-01-10T03:28:26.595Z,75.1
2019-01-10T03:29:27.306Z,75.4
2019-01-10T03:30:28.018Z,75.2
2019-01-10T03:31:28.710Z,75.5
2019-01-10T03:32:29.495Z,75.5
2019-01-10T03:33:30.184Z,75.1
2019-01-10T03:34:30.905Z,75.3
2019-01-10T03:35:31.605Z,75.0
2019-01-10T03:36:32.315Z,74.4
2019-01-10T03:37:33.023Z,74.1
2019-01-10T03:38:33.725Z,73.7
2019-01-10T03:39:34.471Z,73.7
2019-01-10T03:40:35.168Z,73.4
2019-01-10T03:41:35.971Z,73.2
2019-01-10T03:42:36.680Z,73.3
2019-01-10T03:43:46.485Z,73.5
2019-01-10T03:44:38.104Z,73.0
2019-01-10T03:45:38.808Z,73.2
2019-01-10T03:46:39.756Z,73.2
2019-01-10T03:47:40.460Z,73.2
2019-01-10T03:48:41.172Z,73.7
2019-01-10T03:49:41.889Z,73.4
2019-01-10T03:50:42.663Z,73.7
2019-01-10T03:51:43.299Z,74.1
2019-01-10T03:52:43.992Z,74.5
2019-01-10T03:53:44.703Z,74.5
2019-01-10T03:54:45.672Z,73.7
2019-01-10T03:55:46.371Z,73.2
2019-01-10T03:56:47.090Z,73.1
2019-01-10T03:57:47.789Z,73.3
2019-01-10T03:58:48.501Z,72.6
2019-01-10T03:59:49.215Z,72.3
2019-01-10T04:00:49.917Z,72.6
2019-01-10T04:01:50.636Z,72.3
2019-01-10T04:02:51.351Z,72.1
2019-01-10T04:03:52.042Z,73.2
2019-01-10T04:04:52.752Z,73.0
2019-01-10T04:05:53.507Z,73.1
2019-01-10T04:06:54.223Z,72.7
2019-01-10T04:07:54.933Z,72.3
2019-01-10T04:08:55.631Z,72.1
2019-01-10T04:09:56.336Z,72.1
2019-01-10T04:10:57.390Z,71.2
2019-01-10T04:11:58.101Z,71.6
2019-01-10T04:12:58.809Z,71.8
2019-01-10T04:13:59.525Z,72.0
2019-01-10T04:15:00.297Z,71.8
2019-01-10T04:16:00.950Z,72.0
2019-01-10T04:17:01.659Z,71.2
2019-01-10T04:18:02.611Z,71.0
2019-01-10T04:19:03.567Z,70.5
2019-01-10T04:20:04.527Z,70.1
2019-01-10T04:21:05.280Z,70.0
2019-01-10T04:22:06.091Z,70.1
2019-01-10T04:23:06.809Z,69.6
2019-01-10T04:24:07.516Z,68.5
2019-01-10T04:25:08.221Z,68.5
2019-01-10T04:26:08.928Z,69.2
2019-01-10T04:27:09.628Z,69.1
2019-01-10T04:28:10.337Z,68.8
2019-01-10T04:29:11.343Z,69.1
2019-01-10T04:30:12.058Z,69.4
2019-01-10T04:31:12.757Z,69.2
2019-01-10T04:32:13.464Z,68.9
2019-01-10T04:33:14.167Z,68.9
2019-01-10T04:34:15.139Z,69.1
2019-01-10T04:35:15.832Z,69.2
2019-01-10T04:36:16.537Z,69.1
2019-01-10T04:37:17.246Z,69.0
2019-01-10T04:38:18.198Z,69.0
2019-01-10T04:39:18.897Z,68.7
2019-01-10T04:40:19.615Z,69.2
2019-01-10T04:41:20.312Z,69.4
2019-01-10T04:42:21.859Z,68.8
2019-01-10T04:43:21.725Z,68.5
2019-01-10T04:44:22.441Z,69.1
2019-01-10T04:45:23.150Z,68.9
2019-01-10T04:46:23.857Z,68.4
2019-01-10T04:47:24.563Z,68.5
2019-01-10T04:48:25.255Z,68.1
2019-01-10T04:49:25.964Z,68.4
2019-01-10T04:50:26.666Z,67.3
2019-01-10T04:51:27.424Z,67.2
2019-01-10T04:52:28.135Z,68.1
2019-01-10T04:53:29.090Z,68.2
2019-01-10T04:54:29.791Z,68.3
2019-01-10T04:55:30.496Z,67.4
2019-01-10T04:56:31.202Z,67.4
2019-01-10T04:57:31.911Z,67.5
2019-01-10T04:58:32.611Z,67.4
2019-01-10T04:59:33.314Z,67.5
2019-01-10T05:00:34.031Z,67.8
2019-01-10T05:01:34.733Z,66.9
2019-01-10T05:02:35.783Z,66.8
2019-01-10T05:03:36.481Z,66.8
2019-01-10T05:04:37.185Z,66.2
2019-01-10T05:05:37.902Z,66.2
2019-01-10T05:06:38.598Z,66.8
2019-01-10T05:07:39.313Z,66.3
2019-01-10T05:08:40.022Z,65.7
2019-01-10T05:09:40.726Z,65.6
2019-01-10T05:10:41.429Z,65.5
2019-01-10T05:11:42.137Z,65.3
2019-01-10T05:12:43.092Z,65.1
2019-01-10T05:13:43.810Z,65.2
2019-01-10T05:14:44.516Z,64.9
2019-01-10T05:15:45.266Z,64.5
2019-01-10T05:16:45.965Z,64.6
2019-01-10T05:17:46.918Z,64.1
2019-01-10T05:18:47.683Z,63.7
2019-01-10T05:19:48.329Z,64.1
2019-01-10T05:20:49.035Z,63.6
2019-01-10T05:21:49.736Z,63.9
2019-01-10T05:22:50.446Z,64.1
2019-01-10T05:23:51.251Z,63.7
2019-01-10T05:24:51.958Z,64.2
2019-01-10T05:25:52.936Z,64.2
2019-01-10T05:26:53.633Z,64.4
2019-01-10T05:27:54.341Z,64.8
2019-01-10T05:28:55.052Z,65.1
2019-01-10T05:29:55.768Z,64.5
2019-01-10T05:30:56.458Z,64.5
2019-01-10T05:31:57.168Z,64.4
2019-01-10T05:32:57.871Z,65.0
2019-01-10T05:33:58.566Z,65.1
2019-01-10T05:34:59.283Z,65.3
2019-01-10T05:35:59.983Z,65.7
2019-01-10T05:37:00.708Z,65.9
2019-01-10T05:38:01.463Z,66.0
2019-01-10T05:39:02.165Z,66.4
2019-01-10T05:40:02.876Z,66.6
2019-01-10T05:41:03.586Z,66.2
2019-01-10T05:42:04.288Z,66.8
2019-01-10T05:43:04.990Z,67.6
2019-01-10T05:44:05.751Z,67.8
2019-01-10T05:45:06.454Z,68.5
2019-01-10T05:46:07.410Z,69.2
2019-01-10T05:47:08.121Z,68.9
2019-01-10T05:48:08.830Z,69.5
2019-01-10T05:49:09.604Z,70.1
2019-01-10T05:50:10.305Z,70.3
2019-01-10T05:51:11.023Z,70.1
2019-01-10T05:52:11.827Z,70.9
2019-01-10T05:53:12.442Z,70.6
2019-01-10T05:54:13.150Z,70.7
2019-01-10T05:55:13.855Z,71.4
2019-01-10T05:56:15.607Z,71.4
2019-01-10T05:57:15.289Z,71.1
2019-01-10T05:58:15.982Z,72.1
2019-01-10T05:59:16.930Z,72.7
2019-01-10T06:00:17.795Z,73.7
2019-01-10T06:01:18.504Z,74.3
2019-01-10T06:02:19.219Z,74.9
2019-01-10T06:03:19.918Z,74.7
2019-01-10T06:04:20.620Z,76.2
2019-01-10T06:05:21.446Z,76.7
2019-01-10T06:06:22.091Z,76.8
2019-01-10T06:07:22.800Z,76.5
2019-01-10T06:08:23.510Z,77.0
2019-01-10T06:09:24.220Z,77.6
2019-01-10T06:10:25.037Z,77.5
2019-01-10T06:11:25.741Z,78.0
2019-01-10T06:12:26.454Z,78.0
2019-01-10T06:13:27.170Z,79.2
2019-01-10T06:14:35.575Z,78.6
2019-01-10T06:15:28.585Z,78.8
2019-01-10T06:16:29.302Z,78.6
2019-01-10T06:17:30.016Z,78.8
2019-01-10T06:18:30.725Z,78.8
2019-01-10T06:19:31.430Z,79.0
2019-01-10T06:20:32.155Z,78.8
2019-01-10T06:21:32.864Z,79.0
2019-01-10T06:22:33.630Z,78.5
2019-01-10T06:23:34.339Z,78.7
2019-01-10T06:24:35.040Z,79.5
2019-01-10T06:25:35.746Z,79.7
2019-01-10T06:26:36.455Z,80.3
2019-01-10T06:27:37.262Z,80.5
2019-01-10T06:28:37.973Z,81.0
2019-01-10T06:29:38.684Z,81.2
2019-01-10T06:30:39.394Z,80.8
2019-01-10T06:31:40.085Z,81.4
2019-01-10T06:32:40.799Z,81.2
2019-01-10T06:33:41.508Z,81.2
2019-01-10T06:34:42.212Z,80.7
2019-01-10T06:35:42.931Z,80.7
2019-01-10T06:36:43.690Z,81.0
2019-01-10T06:37:44.392Z,80.5
2019-01-10T06:38:45.338Z,80.5
2019-01-10T06:39:46.043Z,80.4
2019-01-10T06:40:46.758Z,80.9
2019-01-10T06:41:47.625Z,81.2
2019-01-10T06:42:48.336Z,81.5
2019-01-10T06:43:49.047Z,82.7
2019-01-10T06:44:49.758Z,82.3
2019-01-10T06:45:50.496Z,81.9
2019-01-10T06:46:51.307Z,82.2
2019-01-10T06:47:52.040Z,81.8
2019-01-10T06:48:52.718Z,82.1
2019-01-10T06:49:53.676Z,82.5
2019-01-10T06:50:54.392Z,83.6
2019-01-10T06:51:55.109Z,83.7
2019-01-10T06:52:55.829Z,83.3
2019-01-10T06:53:56.532Z,83.3
2019-01-10T06:54:57.240Z,83.3
2019-01-10T06:55:57.963Z,84.0
2019-01-10T06:56:58.662Z,84.0
2019-01-10T06:57:59.361Z,83.8
2019-01-10T06:59:00.066Z,84.2
2019-01-10T07:00:00.828Z,84.0
2019-01-10T07:01:01.540Z,84.0
2019-01-10T07:02:02.243Z,84.2
2019-01-10T07:03:02.951Z,85.1
2019-01-10T07:04:03.650Z,85.1
2019-01-10T07:05:04.360Z,85.1
2019-01-10T07:06:05.169Z,84.7
2019-01-10T07:07:05.878Z,85.0
2019-01-10T07:08:06.593Z,84.5
2019-01-10T07:09:07.318Z,84.1
2019-01-10T07:10:08.025Z,83.3
2019-01-10T07:11:08.733Z,83.7
2019-01-10T07:12:09.459Z,83.4
2019-01-10T07:13:10.170Z,83.5
2019-01-10T07:14:10.889Z,84.2
2019-01-10T07:15:11.684Z,85.0
2019-01-10T07:16:12.399Z,85.0
2019-01-10T07:17:13.253Z,85.3
2019-01-10T07:18:14.202Z,85.0
2019-01-10T07:19:14.921Z,85.0
2019-01-10T07:20:15.639Z,85.1
2019-01-10T07:21:16.343Z,84.9
2019-01-10T07:22:17.046Z,84.5
2019-01-10T07:23:17.750Z,84.7
2019-01-10T07:24:18.718Z,84.3
2019-01-10T07:25:19.439Z,84.7
2019-01-10T07:26:20.143Z,84.9
2019-01-10T07:27:20.907Z,85.0
2019-01-10T07:28:21.626Z,84.5
2019-01-10T07:29:22.355Z,84.8
2019-01-10T07:30:23.096Z,84.3
2019-01-10T07:31:23.821Z,84.5
2019-01-10T07:32:24.545Z,84.5
2019-01-10T07:33:25.250Z,83.8
2019-01-10T07:34:25.967Z,84.1
2019-01-10T07:35:26.949Z,84.5
2019-01-10T07:36:27.656Z,84.9
2019-01-10T07:37:28.375Z,85.0
2019-01-10T07:38:29.182Z,84.9
2019-01-10T07:39:30.145Z,84.7
2019-01-10T07:40:30.855Z,84.8
2019-01-10T07:41:31.567Z,85.2
2019-01-10T07:42:32.272Z,85.0
2019-01-10T07:43:32.993Z,85.0
2019-01-10T07:44:33.691Z,84.8
2019-01-10T07:45:34.402Z,85.0
2019-01-10T07:46:35.115Z,85.1
2019-01-10T07:47:35.838Z,85.1
2019-01-10T07:48:36.548Z,85.0
2019-01-10T07:49:37.272Z,85.0
2019-01-10T07:50:38.077Z,85.0
2019-01-10T07:51:38.795Z,84.5
2019-01-10T07:52:39.503Z,84.2
2019-01-10T07:53:40.231Z,84.2
2019-01-10T07:54:42.500Z,83.9
2019-01-10T07:55:41.665Z,85.8
2019-01-10T07:56:42.373Z,86.4
2019-01-10T07:57:43.094Z,86.3
2019-01-10T07:58:43.816Z,85.8
2019-01-10T07:59:44.538Z,85.9
2019-01-10T08:00:45.247Z,85.8
2019-01-10T08:01:46.052Z,86.0
2019-01-10T08:02:46.829Z,85.3
2019-01-10T08:03:47.471Z,85.5
2019-01-10T08:04:48.190Z,84.9
2019-01-10T08:05:48.904Z,84.6
2019-01-10T08:06:49.660Z,86.1
2019-01-10T08:07:50.374Z,85.8
2019-01-10T08:08:51.606Z,85.9
2019-01-10T08:09:52.309Z,86.5
2019-01-10T08:10:53.015Z,88.0
2019-01-10T08:12:00.395Z,87.1
2019-01-10T08:12:54.455Z,86.7
2019-01-10T08:13:55.167Z,86.5
2019-01-10T08:14:55.885Z,86.7
2019-01-10T08:15:56.596Z,85.7
2019-01-10T08:16:57.307Z,85.0
2019-01-10T08:17:58.024Z,84.9
2019-01-10T08:18:58.736Z,85.2
2019-01-10T08:19:59.453Z,85.5
2019-01-10T08:21:00.166Z,85.3
2019-01-10T08:22:00.896Z,85.8
2019-01-10T08:23:01.610Z,85.7
2019-01-10T08:24:02.365Z,85.9
2019-01-10T08:25:03.075Z,87.1
2019-01-10T08:26:03.787Z,87.1
2019-01-10T08:27:04.501Z,88.0
2019-01-10T08:28:05.208Z,88.0
2019-01-10T08:29:05.931Z,87.8
2019-01-10T08:30:06.700Z,88.8
2019-01-10T08:31:07.420Z,89.5
2019-01-10T08:32:08.142Z,89.5
2019-01-10T08:33:08.863Z,90.3
2019-01-10T08:34:09.591Z,89.9
2019-01-10T08:35:10.291Z,90.3
2019-01-10T08:36:11.003Z,89.5
2019-01-10T08:37:12.279Z,89.5
2019-01-10T08:38:12.441Z,89.3
2019-01-10T08:39:13.146Z,89.1
2019-01-10T08:40:13.877Z,88.7
2019-01-10T08:41:14.639Z,88.9
2019-01-10T08:42:15.347Z,88.9
2019-01-10T08:43:16.054Z,89.9
2019-01-10T08:44:16.819Z,89.6
2019-01-10T08:45:21.906Z,88.5
2019-01-10T08:46:19.007Z,89.0
2019-01-10T08:47:19.026Z,89.9
2019-01-10T08:48:19.740Z,90.1
2019-01-10T08:49:20.466Z,89.7
2019-01-10T08:50:21.186Z,89.3
2019-01-10T08:51:21.900Z,88.8
2019-01-10T08:52:22.613Z,89.5
2019-01-10T08:53:23.325Z,90.1
2019-01-10T08:54:24.033Z,90.7
2019-01-10T08:55:24.751Z,91.4
2019-01-10T08:56:25.464Z,91.1
2019-01-10T08:57:26.181Z,91.4
2019-01-10T08:58:26.902Z,91.6
2019-01-10T08:59:27.624Z,91.0
2019-01-10T09:00:28.584Z,90.4
2019-01-10T09:01:29.293Z,91.5
2019-01-10T09:02:30.006Z,90.7
2019-01-10T09:03:30.783Z,90.9
2019-01-10T09:04:31.550Z,91.4
2019-01-10T09:05:32.216Z,90.8
2019-01-10T09:06:32.920Z,91.1
2019-01-10T09:07:33.641Z,91.2
2019-01-10T09:08:34.415Z,91.7
2019-01-10T09:09:35.116Z,93.6
2019-01-10T09:10:35.823Z,94.1
2019-01-10T09:11:36.540Z,93.0
2019-01-10T09:12:37.299Z,92.6
2019-01-10T09:13:38.069Z,93.5
2019-01-10T09:14:38.774Z,95.3
2019-01-10T09:15:39.484Z,94.9
2019-01-10T09:16:40.196Z,95.8
2019-01-10T09:17:40.917Z,95.8
2019-01-10T09:18:41.634Z,95.1
2019-01-10T09:19:42.396Z,94.7
2019-01-10T09:20:43.111Z,96.9
2019-01-10T09:21:43.828Z,97.5
2019-01-10T09:22:44.542Z,97.1
2019-01-10T09:23:45.254Z,97.8
2019-01-10T09:24:45.988Z,95.5
2019-01-10T09:25:46.696Z,95.4
2019-01-10T09:26:47.413Z,97.0
2019-01-10T09:27:48.127Z,97.0
2019-01-10T09:28:48.904Z,97.1
2019-01-10T09:29:49.615Z,98.5
2019-01-10T09:30:50.477Z,99.1
2019-01-10T09:31:51.191Z,99.7
2019-01-10T09:32:51.899Z,100.0
2019-01-10T09:33:52.620Z,100.0
2019-01-10T09:34:53.335Z,100.0
2019-01-10T09:35:54.144Z,100.0
2019-01-10T09:36:54.873Z,100.0
2019-01-10T09:37:55.583Z,100.0
2019-01-10T09:38:56.310Z,100.0
2019-01-10T09:39:57.020Z,100.0
2019-01-10T09:40:57.749Z,100.0
2019-01-10T09:41:58.469Z,100.0
2019-01-10T09:42:59.275Z,100.0
2019-01-10T09:43:59.989Z,100.0
2019-01-10T09:45:00.714Z,100.0
2019-01-10T09:46:01.437Z,100.0
2019-01-10T09:47:02.175Z,100.0
2019-01-10T09:48:03.043Z,100.0
2019-01-10T09:49:03.756Z,100.0
2019-01-10T09:50:04.475Z,100.0
2019-01-10T09:51:05.194Z,100.0
2019-01-10T09:52:05.910Z,100.0
2019-01-10T09:53:06.622Z,100.0
2019-01-10T09:54:07.457Z,100.0
2019-01-10T09:55:08.427Z,100.0
2019-01-10T09:56:09.140Z,100.0
2019-01-10T09:57:10.118Z,100.0
2019-01-10T09:58:10.851Z,100.0
2019-01-10T09:59:11.561Z,100.0
2019-01-10T10:00:12.287Z,100.0
2019-01-10T10:01:12.994Z,100.0
2019-01-10T10:02:13.703Z,100.0
2019-01-10T10:03:14.422Z,100.0
2019-01-10T10:04:15.240Z,100.0
2019-01-10T10:05:15.959Z,100.0
2019-01-10T10:06:16.676Z,100.0
2019-01-10T10:07:17.412Z,100.0
2019-01-10T10:08:18.106Z,100.0
2019-01-10T10:09:18.818Z,100.0
2019-01-10T10:10:19.534Z,100.0
2019-01-10T10:11:20.249Z,100.0
2019-01-10T10:12:21.126Z,100.0
2019-01-10T10:13:21.849Z,100.0
2019-01-10T10:14:22.684Z,100.0
2019-01-10T10:15:23.444Z,100.0
2019-01-10T10:16:24.155Z,100.0
2019-01-10T10:17:24.876Z,100.0
2019-01-10T10:18:25.585Z,100.0
2019-01-10T10:19:26.300Z,100.0
2019-01-10T10:20:27.012Z,100.0
2019-01-10T10:21:27.730Z,100.0
2019-01-10T10:22:28.441Z,100.0
2019-01-10T10:23:29.127Z,100.0
2019-01-10T10:24:29.954Z,100.0
2019-01-10T10:25:30.674Z,100.0
2019-01-10T10:26:31.393Z,100.0
2019-01-10T10:27:32.105Z,100.0
2019-01-10T10:28:32.826Z,100.0
2019-01-10T10:29:33.540Z,100.0
2019-01-10T10:30:34.247Z,100.0
2019-01-10T10:31:34.970Z,100.0
2019-01-10T10:32:35.682Z,100.0
2019-01-10T10:33:36.405Z,100.0
2019-01-10T10:34:37.114Z,100.0
2019-01-10T10:35:37.832Z,100.0
2019-01-10T10:36:38.542Z,100.0
2019-01-10T10:37:39.401Z,100.0
2019-01-10T10:38:40.119Z,100.0
2019-01-10T10:39:40.832Z,100.0
2019-01-10T10:40:41.546Z,100.0
2019-01-10T10:41:42.262Z,100.0
2019-01-10T10:42:43.031Z,100.0
2019-01-10T10:43:43.738Z,100.0
2019-01-10T10:44:44.469Z,100.0
2019-01-10T10:45:45.185Z,100.0
2019-01-10T10:46:45.896Z,100.0
2019-01-10T10:47:46.613Z,100.0
2019-01-10T10:48:47.354Z,100.0
2019-01-10T10:49:48.067Z,100.0
2019-01-10T10:50:48.793Z,100.0
2019-01-10T10:51:50.010Z,100.0
2019-01-10T10:52:50.918Z,100.0
2019-01-10T10:53:51.573Z,100.0
2019-01-10T10:54:52.303Z,100.0
2019-01-10T10:55:53.007Z,100.0
2019-01-10T10:56:53.722Z,100.0
2019-01-10T10:57:54.458Z,100.0
2019-01-10T10:58:55.153Z,100.0
2019-01-10T10:59:55.966Z,100.0
2019-01-10T11:00:56.688Z,100.0
2019-01-10T11:01:57.412Z,100.0
2019-01-10T11:02:58.150Z,100.0
2019-01-10T11:03:58.875Z,100.0
2019-01-10T11:04:59.589Z,100.0
2019-01-10T11:06:00.313Z,100.0
2019-01-10T11:07:01.043Z,100.0
2019-01-10T11:08:01.762Z,100.0
2019-01-10T11:09:09.014Z,100.0
2019-01-10T11:10:03.202Z,100.0
2019-01-10T11:11:03.923Z,100.0
2019-01-10T11:12:04.641Z,100.0
2019-01-10T11:13:05.371Z,100.0
2019-01-10T11:14:06.079Z,100.0
2019-01-10T11:15:06.787Z,100.0
2019-01-10T11:16:10.689Z,100.0
2019-01-10T11:17:08.223Z,100.0
2019-01-10T11:18:08.939Z,100.0
2019-01-10T11:19:09.698Z,100.0
2019-01-10T11:20:11.128Z,100.0
2019-01-10T11:21:11.837Z,100.0
2019-01-10T11:22:12.571Z,100.0
2019-01-10T11:23:13.290Z,100.0
2019-01-10T11:24:14.012Z,100.0
2019-01-10T11:25:14.740Z,100.0
2019-01-10T11:26:15.463Z,100.0
2019-01-10T11:27:16.214Z,100.0
2019-01-10T11:28:16.938Z,100.0
2019-01-10T11:29:17.650Z,100.0
2019-01-10T11:30:18.380Z,100.0
2019-01-10T11:31:19.089Z,100.0
2019-01-10T11:32:19.823Z,100.0
2019-01-10T11:33:20.541Z,100.0
2019-01-10T11:34:21.255Z,100.0
2019-01-10T11:35:21.972Z,100.0
2019-01-10T11:36:22.752Z,100.0
2019-01-10T11:37:23.478Z,100.0
2019-01-10T11:38:24.192Z,100.0
2019-01-10T11:39:24.920Z,100.0
2019-01-10T11:40:25.634Z,100.0
2019-01-10T11:41:26.451Z,100.0
2019-01-10T11:42:27.198Z,100.0
2019-01-10T11:43:27.925Z,100.0
2019-01-10T11:44:28.635Z,100.0
2019-01-10T11:45:29.363Z,100.0
2019-01-10T11:46:30.121Z,100.0
2019-01-10T11:47:30.838Z,100.0
2019-01-10T11:48:31.554Z,100.0
2019-01-10T11:49:32.274Z,100.0
2019-01-10T11:50:33.004Z,100.0
2019-01-10T11:51:33.699Z,100.0
2019-01-10T11:52:34.421Z,100.0
2019-01-10T11:53:35.544Z,100.0
2019-01-10T11:54:35.869Z,100.0
2019-01-10T11:55:36.858Z,100.0
2019-01-10T11:56:37.971Z,100.0
2019-01-10T11:57:38.787Z,100.0
2019-01-10T11:58:39.515Z,100.0
2019-01-10T11:59:40.218Z,100.0
2019-01-10T12:00:40.935Z,100.0
2019-01-10T12:01:41.645Z,100.0
2019-01-10T12:02:42.521Z,100.0
2019-01-10T12:03:43.238Z,100.0
2019-01-10T12:04:43.957Z,100.0
2019-01-10T12:05:48.252Z,100.0
2019-01-10T12:06:45.410Z,100.0
2019-01-10T12:07:46.115Z,100.0
2019-01-10T12:08:46.839Z,100.0
2019-01-10T12:09:48.028Z,100.0
2019-01-10T12:10:48.743Z,100.0
2019-01-10T12:11:49.470Z,100.0
2019-01-10T12:12:50.196Z,100.0
2019-01-10T12:13:50.918Z,100.0
2019-01-10T12:14:51.627Z,100.0
2019-01-10T12:15:52.344Z,100.0
2019-01-10T12:16:53.073Z,100.0
2019-01-10T12:17:53.830Z,100.0
2019-01-10T12:18:59.224Z,100.0
2019-01-10T12:19:55.292Z,100.0
2019-01-10T12:20:56.007Z,100.0
2019-01-10T12:21:56.718Z,100.0
2019-01-10T12:22:57.546Z,100.0
2019-01-10T12:23:58.252Z,100.0
2019-01-10T12:24:58.984Z,100.0
2019-01-10T12:25:59.685Z,100.0
2019-01-10T12:27:00.403Z,100.0
2019-01-10T12:28:01.119Z,100.0
2019-01-10T12:29:01.838Z,100.0
2019-01-10T12:30:02.783Z,100.0
2019-01-10T12:31:03.544Z,100.0
2019-01-10T12:32:04.768Z,100.0
2019-01-10T12:33:05.587Z,100.0
2019-01-10T12:34:06.299Z,100.0
2019-01-10T12:35:07.013Z,100.0
2019-01-10T12:36:07.731Z,100.0
2019-01-10T12:37:08.713Z,100.0
2019-01-10T12:38:09.473Z,100.0
2019-01-10T12:39:10.177Z,100.0
2019-01-10T12:40:10.888Z,100.0
2019-01-10T12:41:11.601Z,100.0
2019-01-10T12:42:13.240Z,100.0
2019-01-10T12:43:14.828Z,100.0
2019-01-10T12:44:15.932Z,100.0
2019-01-10T12:45:16.636Z,100.0
2019-01-10T12:46:17.361Z,100.0
2019-01-10T12:47:18.077Z,100.0
2019-01-10T12:48:18.796Z,100.0
2019-01-10T12:49:19.581Z,100.0
2019-01-10T12:50:20.289Z,100.0
2019-01-10T12:51:20.997Z,100.0
2019-01-10T12:52:22.438Z,100.0
2019-01-10T12:53:23.496Z,100.0
2019-01-10T12:54:24.219Z,100.0
2019-01-10T12:55:24.944Z,100.0
2019-01-10T12:56:25.652Z,100.0
2019-01-10T12:57:26.636Z,100.0
2019-01-10T12:58:27.353Z,100.0
2019-01-10T12:59:28.537Z,100.0
2019-01-10T13:00:29.693Z,100.0
2019-01-10T13:01:31.778Z,100.0
2019-01-10T13:02:32.717Z,100.0
2019-01-10T13:03:33.442Z,100.0
2019-01-10T13:04:34.157Z,100.0
2019-01-10T13:05:34.877Z,100.0
2019-01-10T13:06:35.619Z,100.0
2019-01-10T13:07:36.308Z,100.0
2019-01-10T13:08:37.699Z,100.0
2019-01-10T13:09:38.609Z,100.0
2019-01-10T13:10:39.346Z,100.0
2019-01-10T13:11:40.328Z,100.0
2019-01-10T13:12:41.094Z,100.0
2019-01-10T13:13:41.798Z,100.0
2019-01-10T13:14:42.523Z,100.0
2019-01-10T13:15:43.237Z,100.0
2019-01-10T13:16:47.008Z,100.0
2019-01-10T13:17:45.406Z,100.0
2019-01-10T13:18:46.131Z,100.0